Hammond, Maine
Current Conditions -  °F | °C
As of 5:53 AM on Saturday 25 Oct 2014 (Local Time) from KHUL Reporting Station
Overcast Overcast  
Wind Chill: 37°   Ceiling: 3300
Heat Index: 41°   Visibility: 10mi
Dew Point: 37°   Wind: 6mph
Humidity: 86%   Direction: 330°NNW
Pressure: 29.61"   Gusts: NA
Location:  46.1163°N, 67.9329°W
Report Text: KHUL 250953Z AUTO 33005KT 10SM OVC033 05/03 A2961 RMK AO2 SLP030 T00500028
Loading
Personal Weather Stations






























Interactive Weather Map
Tropical Storm Tracking
New forecast layout! Learn more

10-Day Weather Forecast

Advertisements
Track Severe Weather on mobile